Time;durP1;ratioP1;P1;durP2;ratioP2;P2;SDS_P1;SDS_P2;PMS_P1;PMS_P2;Temp;Humidity;BMP_temperature;BMP_pressure;BME280_temperature;BME280_humidity;BME280_pressure;Samples;Min_cycle;Max_cycle;Signal;HPM_P1;HPM_P2
2023/03/14 00:00:26;;;;;;;11.40;4.40;;;20.00;51.20;;;;;;5086883;28;20461;-82
2023/03/14 00:02:54;;;;;;;15.83;4.43;;;20.00;51.00;;;;;;5086581;28;20445;-83
2023/03/14 00:05:22;;;;;;;11.97;4.33;;;20.00;51.10;;;;;;5083476;28;20548;-83
2023/03/14 00:07:51;;;;;;;8.70;3.53;;;20.00;51.00;;;;;;5080827;28;20446;-83
2023/03/14 00:10:19;;;;;;;11.87;4.43;;;19.90;50.90;;;;;;5077622;28;20443;-83
2023/03/14 00:12:47;;;;;;;14.03;3.93;;;19.90;50.90;;;;;;5079175;28;20469;-84
2023/03/14 00:15:15;;;;;;;13.70;3.97;;;19.90;50.80;;;;;;5084845;28;20489;-83
2023/03/14 00:17:45;;;;;;;14.73;4.10;;;19.90;50.80;;;;;;5085389;28;20435;-84
2023/03/14 00:20:14;;;;;;;12.13;4.10;;;19.90;50.70;;;;;;5077849;28;20503;-83
2023/03/14 00:22:42;;;;;;;10.33;4.50;;;19.90;50.70;;;;;;5083752;28;20408;-82
2023/03/14 00:25:11;;;;;;;10.63;3.80;;;19.90;50.80;;;;;;5073990;28;20486;-84
2023/03/14 00:27:39;;;;;;;15.30;4.17;;;19.90;50.70;;;;;;5083964;28;20504;-83
2023/03/14 00:30:08;;;;;;;14.40;4.00;;;19.90;50.70;;;;;;5070829;28;20451;-83
2023/03/14 00:32:36;;;;;;;16.07;4.20;;;19.90;50.60;;;;;;5069984;28;20537;-84
2023/03/14 00:35:07;;;;;;;9.40;3.27;;;19.90;50.60;;;;;;5074111;28;20433;-83
2023/03/14 00:37:35;;;;;;;15.20;3.63;;;19.90;50.50;;;;;;5079605;28;20446;-84
2023/03/14 00:40:05;;;;;;;12.67;3.97;;;19.80;50.50;;;;;;5081084;28;20442;-84
2023/03/14 00:42:33;;;;;;;11.47;3.97;;;19.90;50.50;;;;;;5084811;28;20477;-83
2023/03/14 00:45:03;;;;;;;13.53;4.10;;;19.80;50.40;;;;;;5078645;28;20438;-84
2023/03/14 00:47:31;;;;;;;11.03;3.87;;;19.80;50.30;;;;;;5077931;28;20473;-84
2023/03/14 00:50:00;;;;;;;12.97;3.93;;;19.80;50.40;;;;;;5075470;28;20465;-83
2023/03/14 00:52:29;;;;;;;13.00;4.07;;;19.80;50.30;;;;;;5077242;28;20519;-82
2023/03/14 00:54:58;;;;;;;11.20;3.80;;;19.80;50.20;;;;;;5077522;28;20446;-84
2023/03/14 00:57:26;;;;;;;7.97;3.43;;;19.80;50.20;;;;;;5080942;28;20461;-83
2023/03/14 00:59:54;;;;;;;14.20;3.60;;;19.80;50.20;;;;;;5083232;28;20505;-83
2023/03/14 01:02:22;;;;;;;9.67;3.53;;;19.80;50.20;;;;;;5077601;28;20465;-83
2023/03/14 01:04:50;;;;;;;11.20;3.60;;;19.80;50.20;;;;;;5075773;28;20459;-83
2023/03/14 01:07:18;;;;;;;17.40;4.00;;;19.80;50.10;;;;;;5077029;28;20441;-83
2023/03/14 01:09:47;;;;;;;12.67;4.00;;;19.80;50.20;;;;;;5076030;28;20452;-83
2023/03/14 01:12:16;;;;;;;8.57;3.90;;;19.80;50.20;;;;;;5077967;28;20497;-84
2023/03/14 01:14:44;;;;;;;12.50;5.03;;;19.80;50.20;;;;;;5074707;28;20439;-84
2023/03/14 01:17:12;;;;;;;20.63;6.70;;;19.80;50.30;;;;;;5078733;28;20542;-84
2023/03/14 01:19:40;;;;;;;9.50;4.80;;;19.80;50.30;;;;;;5074436;28;20466;-83
2023/03/14 01:22:08;;;;;;;15.77;5.80;;;19.80;50.20;;;;;;5074298;28;20469;-84
2023/03/14 01:24:37;;;;;;;12.57;5.47;;;19.80;50.30;;;;;;5076932;28;20452;-84
2023/03/14 01:27:07;;;;;;;9.53;5.10;;;19.80;50.40;;;;;;5076198;28;20470;-86
2023/03/14 01:29:35;;;;;;;15.17;6.00;;;19.80;50.40;;;;;;5076729;28;20454;-84
2023/03/14 01:32:04;;;;;;;14.43;5.20;;;19.80;50.50;;;;;;5071541;28;20447;-84
2023/03/14 01:34:32;;;;;;;11.37;5.60;;;19.80;50.40;;;;;;5070269;28;20478;-84
2023/03/14 01:37:01;;;;;;;12.00;5.60;;;19.80;50.40;;;;;;5072487;28;20466;-84
2023/03/14 01:39:29;;;;;;;12.67;5.10;;;19.80;50.40;;;;;;5076453;28;20442;-85
2023/03/14 01:41:57;;;;;;;11.83;5.27;;;19.80;50.50;;;;;;5071623;28;20476;-83
2023/03/14 01:44:27;;;;;;;13.40;6.30;;;19.80;50.40;;;;;;5075227;28;20456;-84
2023/03/14 01:46:55;;;;;;;12.50;4.93;;;19.80;50.50;;;;;;5073260;28;20468;-83
2023/03/14 01:49:25;;;;;;;9.63;4.90;;;19.80;50.60;;;;;;5060612;28;20447;-84
2023/03/14 01:51:55;;;;;;;7.60;4.63;;;19.80;50.50;;;;;;5073749;28;21015;-84
2023/03/14 01:54:26;;;;;;;9.80;4.40;;;19.80;50.50;;;;;;5071183;28;20452;-84
2023/03/14 01:56:55;;;;;;;7.60;4.20;;;19.80;50.50;;;;;;5075031;28;20512;-83
2023/03/14 01:59:24;;;;;;;10.60;4.43;;;19.80;50.60;;;;;;5082145;28;20541;-83
2023/03/14 02:01:53;;;;;;;10.47;4.60;;;19.80;50.60;;;;;;5081301;28;20480;-84
2023/03/14 02:04:22;;;;;;;9.23;3.87;;;19.80;50.60;;;;;;5079806;28;20441;-83
2023/03/14 02:06:55;;;;;;;10.60;4.27;;;19.80;50.60;;;;;;5082985;28;20462;-83
2023/03/14 02:09:23;;;;;;;10.77;4.27;;;19.80;50.60;;;;;;5089537;28;20537;-83
2023/03/14 02:11:51;;;;;;;7.47;3.70;;;19.80;50.60;;;;;;5081000;28;20469;-83
2023/03/14 02:14:28;;;;;;;10.40;3.90;;;19.80;50.80;;;;;;5080638;28;20520;-84
2023/03/14 02:16:57;;;;;;;6.33;3.90;;;19.80;50.70;;;;;;5079656;28;20461;-84
2023/03/14 02:19:31;;;;;;;7.50;4.23;;;19.80;50.80;;;;;;5079382;28;20464;-83
2023/03/14 02:22:02;;;;;;;5.73;3.50;;;19.80;50.80;;;;;;5087647;28;20465;-84
2023/03/14 02:24:39;;;;;;;10.10;4.23;;;19.80;50.90;;;;;;5078195;28;20477;-83
2023/03/14 02:27:12;;;;;;;7.00;3.03;;;19.80;50.90;;;;;;5078959;28;20501;-84
2023/03/14 02:29:44;;;;;;;7.27;3.70;;;19.80;51.00;;;;;;5082764;28;20459;-85
2023/03/14 02:32:13;;;;;;;10.00;4.00;;;19.70;50.90;;;;;;5074992;28;20453;-84
2023/03/14 02:34:41;;;;;;;6.10;3.60;;;19.80;51.10;;;;;;5079116;28;20453;-84
2023/03/14 02:37:09;;;;;;;7.17;3.80;;;19.70;50.90;;;;;;5077962;28;20480;-84
2023/03/14 02:39:39;;;;;;;10.40;3.80;;;19.70;50.90;;;;;;5080498;28;20461;-85
2023/03/14 02:42:07;;;;;;;6.77;3.70;;;19.80;51.00;;;;;;5083221;28;20524;-84
2023/03/14 02:44:37;;;;;;;9.33;3.60;;;19.80;50.90;;;;;;5082556;28;20450;-84
2023/03/14 02:47:05;;;;;;;6.37;3.23;;;19.80;50.90;;;;;;5080780;28;20494;-85
2023/03/14 02:49:33;;;;;;;10.77;3.60;;;19.80;51.00;;;;;;5078190;28;20450;-84
2023/03/14 02:52:01;;;;;;;8.80;3.03;;;19.80;50.90;;;;;;5084074;28;20429;-84
2023/03/14 02:54:29;;;;;;;5.77;2.80;;;19.80;50.90;;;;;;5082507;28;20450;-84
2023/03/14 02:56:57;;;;;;;6.17;2.87;;;19.70;50.80;;;;;;5080894;28;20465;-84
2023/03/14 02:59:25;;;;;;;5.40;3.20;;;19.70;50.80;;;;;;5078868;28;20885;-84
2023/03/14 03:01:55;;;;;;;10.90;3.13;;;19.70;50.90;;;;;;5082262;28;20452;-84
2023/03/14 03:04:23;;;;;;;5.03;2.90;;;19.70;50.80;;;;;;5080400;28;20429;-84
2023/03/14 03:06:52;;;;;;;7.77;3.43;;;19.70;50.90;;;;;;5081139;28;20473;-83
2023/03/14 03:09:20;;;;;;;7.00;3.00;;;19.60;50.90;;;;;;5081653;28;20456;-83
2023/03/14 03:11:48;;;;;;;4.50;2.50;;;19.60;50.90;;;;;;5079656;28;20553;-84
2023/03/14 03:14:16;;;;;;;4.57;2.47;;;19.60;50.90;;;;;;5082895;28;20460;-84
2023/03/14 03:16:44;;;;;;;3.73;2.70;;;19.60;50.80;;;;;;5081574;28;20481;-84
2023/03/14 03:19:15;;;;;;;4.07;2.77;;;19.60;50.80;;;;;;5085324;28;20447;-85
2023/03/14 03:21:43;;;;;;;7.23;3.00;;;19.60;50.80;;;;;;5083570;28;20485;-84
2023/03/14 03:24:12;;;;;;;5.00;2.73;;;19.60;50.90;;;;;;5077031;28;20462;-85
2023/03/14 03:26:40;;;;;;;5.63;2.80;;;19.50;50.90;;;;;;5080005;28;20457;-84
2023/03/14 03:29:08;;;;;;;5.57;2.90;;;19.50;51.00;;;;;;5082481;28;20449;-84
2023/03/14 03:31:37;;;;;;;4.87;2.40;;;19.50;51.10;;;;;;5081490;28;20481;-84
2023/03/14 03:34:06;;;;;;;4.73;2.50;;;19.40;51.00;;;;;;5080910;28;20522;-84
2023/03/14 03:36:35;;;;;;;3.27;2.43;;;19.40;51.00;;;;;;5079104;28;20474;-84
2023/03/14 03:39:04;;;;;;;3.53;2.20;;;19.40;51.10;;;;;;5076070;28;20458;-85
2023/03/14 03:41:32;;;;;;;5.10;2.30;;;19.40;51.20;;;;;;5084892;28;20494;-85
2023/03/14 03:44:01;;;;;;;8.57;2.40;;;19.40;51.20;;;;;;5085219;28;20448;-84
2023/03/14 03:46:29;;;;;;;7.60;2.37;;;19.30;51.10;;;;;;5082828;28;20473;-83
2023/03/14 03:48:57;;;;;;;2.60;2.10;;;19.30;51.20;;;;;;5075233;28;20457;-84
2023/03/14 03:51:25;;;;;;;4.40;2.23;;;19.30;51.20;;;;;;5075735;28;20536;-83
2023/03/14 03:54:28;;;;;;;3.77;2.20;;;19.30;51.30;;;;;;5081042;28;20455;-82
2023/03/14 03:56:56;;;;;;;2.87;2.50;;;19.30;51.30;;;;;;5073410;28;20477;-82
2023/03/14 03:59:25;;;;;;;7.53;2.27;;;19.20;51.40;;;;;;5076058;28;20522;-83
2023/03/14 04:01:53;;;;;;;3.53;1.93;;;19.20;51.30;;;;;;5079110;28;20482;-84
2023/03/14 04:04:21;;;;;;;3.40;2.20;;;19.20;51.30;;;;;;5079977;28;20514;-87
2023/03/14 04:06:49;;;;;;;3.73;2.40;;;19.20;51.40;;;;;;5081330;28;20510;-84
2023/03/14 04:09:18;;;;;;;2.50;2.07;;;19.20;51.40;;;;;;5074229;28;20449;-83
2023/03/14 04:11:47;;;;;;;3.67;2.30;;;19.20;51.50;;;;;;5084452;28;20438;-84
2023/03/14 04:14:15;;;;;;;3.20;1.90;;;19.20;51.50;;;;;;5077085;28;20455;-84
2023/03/14 04:16:44;;;;;;;3.43;1.97;;;19.10;51.50;;;;;;5082810;28;20548;-83
2023/03/14 04:19:12;;;;;;;2.93;2.13;;;19.10;51.50;;;;;;5076675;28;20461;-83
2023/03/14 04:21:44;;;;;;;2.30;1.90;;;19.10;51.60;;;;;;5081240;28;20454;-84
2023/03/14 04:24:12;;;;;;;2.30;2.00;;;19.10;51.50;;;;;;5077770;28;20476;-84
2023/03/14 04:26:40;;;;;;;3.50;1.83;;;19.10;51.60;;;;;;5079501;28;20483;-84
2023/03/14 04:29:09;;;;;;;4.80;1.97;;;19.10;51.70;;;;;;5079776;28;20456;-84
2023/03/14 04:31:40;;;;;;;2.20;2.00;;;19.10;51.60;;;;;;5082341;28;20449;-83
2023/03/14 04:34:08;;;;;;;3.93;2.10;;;19.10;51.60;;;;;;5078763;28;20457;-84
2023/03/14 04:36:36;;;;;;;3.80;2.13;;;19.10;51.70;;;;;;5079135;28;20480;-84
2023/03/14 04:39:06;;;;;;;4.40;2.20;;;19.10;51.60;;;;;;5075930;28;20509;-83
2023/03/14 04:41:34;;;;;;;2.80;2.30;;;19.10;51.60;;;;;;5078144;28;20461;-83
2023/03/14 04:44:02;;;;;;;5.47;2.10;;;19.10;51.70;;;;;;5073509;28;20474;-83
2023/03/14 04:46:32;;;;;;;4.03;2.27;;;19.10;51.70;;;;;;5078574;28;20541;-84
2023/03/14 04:49:00;;;;;;;3.80;2.13;;;19.10;51.70;;;;;;5080377;28;20445;-84
2023/03/14 04:51:28;;;;;;;2.93;2.23;;;19.00;51.60;;;;;;5081649;28;20454;-84
2023/03/14 04:53:56;;;;;;;6.53;1.80;;;19.00;52.30;;;;;;5077403;28;20450;-84
2023/03/14 04:56:25;;;;;;;5.00;2.17;;;19.10;51.70;;;;;;5076566;28;20533;-84
2023/03/14 04:58:53;;;;;;;2.40;1.87;;;19.00;51.60;;;;;;5076384;28;20518;-84
2023/03/14 05:01:21;;;;;;;3.97;2.10;;;19.00;51.60;;;;;;5074702;28;20457;-83
2023/03/14 05:03:51;;;;;;;2.40;1.87;;;19.00;51.50;;;;;;5078811;28;20455;-84
2023/03/14 05:06:19;;;;;;;3.97;1.90;;;19.00;51.60;;;;;;5079751;28;20468;-84
2023/03/14 05:08:47;;;;;;;2.40;1.60;;;19.00;51.60;;;;;;5084338;28;20556;-85
2023/03/14 05:11:15;;;;;;;2.63;1.80;;;19.00;51.50;;;;;;5078962;28;20461;-84
2023/03/14 05:13:43;;;;;;;2.70;1.80;;;19.00;51.50;;;;;;5079146;28;20525;-84
2023/03/14 05:16:11;;;;;;;2.87;1.70;;;19.00;51.60;;;;;;5080449;28;20537;-83
2023/03/14 05:18:39;;;;;;;2.60;1.60;;;19.00;51.50;;;;;;5078498;28;20441;-85
2023/03/14 05:21:09;;;;;;;2.30;1.87;;;19.00;51.50;;;;;;5082969;28;20513;-84
2023/03/14 05:23:37;;;;;;;3.90;2.10;;;19.00;51.50;;;;;;5076060;28;20463;-83
2023/03/14 05:26:06;;;;;;;2.10;1.53;;;19.00;51.60;;;;;;5072877;28;20480;-84
2023/03/14 05:28:34;;;;;;;2.20;1.50;;;19.00;51.50;;;;;;5077300;28;20481;-83
2023/03/14 05:31:02;;;;;;;3.57;1.60;;;19.00;51.50;;;;;;5078214;28;20427;-83
2023/03/14 05:33:29;;;;;;;4.83;2.23;;;19.00;51.50;;;;;;5081234;28;20449;-85
2023/03/14 05:35:58;;;;;;;2.60;1.60;;;19.00;51.40;;;;;;5081558;28;20461;-84
2023/03/14 05:38:27;;;;;;;2.73;1.73;;;19.00;51.40;;;;;;5080969;28;20461;-84
2023/03/14 05:40:55;;;;;;;6.20;2.20;;;19.00;51.40;;;;;;5080014;28;20445;-83
2023/03/14 05:43:23;;;;;;;6.53;2.13;;;19.00;51.40;;;;;;5073359;28;20458;-83
2023/03/14 05:45:52;;;;;;;6.03;1.80;;;19.00;51.50;;;;;;5080522;28;20474;-83
2023/03/14 05:48:21;;;;;;;1.70;1.60;;;19.00;51.40;;;;;;5081853;28;20457;-84
2023/03/14 05:50:54;;;;;;;2.43;1.90;;;19.00;51.40;;;;;;5075176;28;20478;-84
2023/03/14 05:53:23;;;;;;;4.13;1.73;;;19.00;51.40;;;;;;5080898;28;20457;-84
2023/03/14 05:55:53;;;;;;;3.57;1.93;;;19.00;51.40;;;;;;5078733;28;20465;-83
2023/03/14 05:58:25;;;;;;;3.67;1.67;;;19.00;51.40;;;;;;5082243;28;20511;-84
2023/03/14 06:00:53;;;;;;;4.10;1.90;;;19.00;51.40;;;;;;5080303;28;20440;-83
2023/03/14 06:03:21;;;;;;;3.27;1.60;;;19.00;51.40;;;;;;5080737;28;20560;-83
2023/03/14 06:05:51;;;;;;;4.80;1.60;;;19.00;51.40;;;;;;5081227;28;20475;-84
2023/03/14 06:08:19;;;;;;;2.07;1.60;;;19.00;51.30;;;;;;5076914;28;20453;-84
2023/03/14 06:10:47;;;;;;;4.40;1.77;;;19.00;51.40;;;;;;5081876;28;20453;-83
2023/03/14 06:13:17;;;;;;;3.23;1.80;;;19.00;51.50;;;;;;5080071;28;20589;-84
2023/03/14 06:15:45;;;;;;;3.43;1.70;;;18.90;51.40;;;;;;5082029;28;20469;-84
2023/03/14 06:18:14;;;;;;;6.20;1.70;;;18.90;51.50;;;;;;5079646;28;20450;-83
2023/03/14 06:20:42;;;;;;;4.10;1.40;;;18.90;51.30;;;;;;5073945;28;20453;-83
2023/03/14 06:23:11;;;;;;;3.57;1.50;;;18.90;51.60;;;;;;5075337;28;20446;-84
2023/03/14 06:25:39;;;;;;;3.80;1.50;;;18.80;51.50;;;;;;5072435;28;20480;-83
2023/03/14 06:28:07;;;;;;;3.50;2.13;;;18.80;51.60;;;;;;5074376;28;20521;-83
2023/03/14 06:30:37;;;;;;;7.63;1.73;;;18.90;51.40;;;;;;5072670;28;20460;-84
2023/03/14 06:33:05;;;;;;;2.97;1.60;;;18.90;51.70;;;;;;5078869;28;20454;-85
2023/03/14 06:35:33;;;;;;;4.60;1.60;;;18.80;51.50;;;;;;5077544;28;20476;-84
2023/03/14 06:38:01;;;;;;;4.90;1.83;;;18.80;51.60;;;;;;5083201;28;20504;-83
2023/03/14 06:40:29;;;;;;;4.63;1.60;;;18.90;51.50;;;;;;5079739;28;20460;-83
2023/03/14 06:42:57;;;;;;;5.70;2.10;;;18.80;51.60;;;;;;5073337;28;20459;-83
2023/03/14 06:45:26;;;;;;;3.80;1.50;;;18.80;51.80;;;;;;5068219;28;20982;-83
2023/03/14 06:47:57;;;;;;;3.00;1.70;;;18.90;51.60;;;;;;5067577;28;20826;-81
2023/03/14 06:50:30;;;;;;;2.07;1.80;;;18.90;51.50;;;;;;5071797;28;20536;-84
2023/03/14 06:52:58;;;;;;;3.67;1.97;;;18.90;52.30;;;;;;5079631;28;20468;-83
2023/03/14 06:55:27;;;;;;;4.67;1.70;;;19.00;51.60;;;;;;5083213;28;20533;-83
2023/03/14 06:58:09;;;;;;;2.50;1.60;;;19.00;51.70;;;;;;5079038;28;20457;-83
2023/03/14 07:00:37;;;;;;;3.17;1.63;;;19.00;51.50;;;;;;5074789;28;20453;-84
2023/03/14 07:03:07;;;;;;;3.97;2.03;;;19.10;51.50;;;;;;5075430;28;20573;-82
2023/03/14 07:05:35;;;;;;;2.77;1.57;;;19.10;51.40;;;;;;5080190;28;20477;-84
2023/03/14 07:08:03;;;;;;;3.87;1.80;;;19.20;51.40;;;;;;5082934;28;20477;-83
2023/03/14 07:10:31;;;;;;;3.70;1.93;;;19.20;51.30;;;;;;5078063;28;20451;-83
2023/03/14 07:12:58;;;;;;;4.73;1.77;;;19.20;51.20;;;;;;5081358;28;20460;-83
2023/03/14 07:15:27;;;;;;;4.20;1.60;;;19.20;51.30;;;;;;5077134;28;20470;-85
2023/03/14 07:17:55;;;;;;;5.07;1.70;;;19.20;51.20;;;;;;5073520;28;20457;-83
2023/03/14 07:20:25;;;;;;;3.73;1.70;;;19.20;51.40;;;;;;5079678;28;20537;-84
2023/03/14 07:22:54;;;;;;;4.10;1.93;;;19.20;51.30;;;;;;5080054;28;20453;-82
2023/03/14 07:25:22;;;;;;;3.53;1.57;;;19.20;51.30;;;;;;5074427;28;20470;-82
2023/03/14 07:27:50;;;;;;;3.13;1.90;;;19.10;51.20;;;;;;5081362;28;20464;-82
2023/03/14 07:30:18;;;;;;;3.00;1.77;;;19.10;51.30;;;;;;5076555;28;20536;-84
2023/03/14 07:32:46;;;;;;;4.60;1.60;;;19.10;51.40;;;;;;5079658;28;20459;-83
2023/03/14 07:35:14;;;;;;;2.60;1.80;;;19.20;51.50;;;;;;5081863;28;20470;-83
2023/03/14 07:37:44;;;;;;;4.50;1.70;;;19.10;51.30;;;;;;5080367;28;20470;-83
2023/03/14 07:40:14;;;;;;;1.60;1.50;;;19.10;51.40;;;;;;5077163;28;20449;-84
2023/03/14 07:42:43;;;;;;;2.40;1.60;;;19.10;51.40;;;;;;5077343;28;20517;-82
2023/03/14 07:45:11;;;;;;;3.50;1.80;;;19.10;51.40;;;;;;5075863;28;20500;-82
2023/03/14 07:47:39;;;;;;;2.50;1.80;;;19.20;51.50;;;;;;5078560;28;20461;-83
2023/03/14 07:50:08;;;;;;;2.63;1.77;;;19.10;51.30;;;;;;5079793;28;20464;-83
2023/03/14 07:52:36;;;;;;;2.80;1.70;;;19.10;51.50;;;;;;5080421;28;20454;-83
2023/03/14 07:55:07;;;;;;;4.67;1.97;;;19.10;51.50;;;;;;5080449;28;20496;-83
2023/03/14 07:57:35;;;;;;;3.83;1.77;;;19.00;51.50;;;;;;5079809;28;20451;-84
2023/03/14 08:00:05;;;;;;;3.20;1.70;;;19.10;51.50;;;;;;5074271;28;20464;-83
2023/03/14 08:02:33;;;;;;;3.90;1.93;;;19.10;51.60;;;;;;5084539;28;20446;-84
2023/03/14 08:05:01;;;;;;;2.93;1.80;;;19.10;51.50;;;;;;5084936;28;20469;-84
2023/03/14 08:07:29;;;;;;;2.73;1.57;;;19.10;51.70;;;;;;5075643;28;20514;-84
2023/03/14 08:09:58;;;;;;;3.37;1.83;;;19.10;51.60;;;;;;5078911;28;20480;-84
2023/03/14 08:12:27;;;;;;;3.40;1.80;;;19.20;51.70;;;;;;5076791;28;20457;-83
2023/03/14 08:14:55;;;;;;;4.20;1.90;;;19.20;51.60;;;;;;5080395;28;20442;-83
2023/03/14 08:17:23;;;;;;;4.00;2.03;;;19.20;51.50;;;;;;5079605;28;20514;-83
2023/03/14 08:19:55;;;;;;;7.27;2.10;;;19.20;51.50;;;;;;5081563;28;20461;-83
2023/03/14 08:22:23;;;;;;;4.47;2.43;;;19.20;51.60;;;;;;5078489;28;20462;-83
2023/03/14 08:24:51;;;;;;;4.80;2.30;;;19.20;51.50;;;;;;5075172;28;20489;-83
2023/03/14 08:27:19;;;;;;;4.77;2.40;;;19.30;51.40;;;;;;5080302;28;20456;-82
2023/03/14 08:29:49;;;;;;;2.23;1.87;;;19.30;51.50;;;;;;5079084;28;20451;-83
2023/03/14 08:32:17;;;;;;;4.33;1.83;;;19.30;51.50;;;;;;5077521;28;20537;-83
2023/03/14 08:34:45;;;;;;;2.90;2.00;;;19.30;51.40;;;;;;5082412;28;20438;-81
2023/03/14 08:37:13;;;;;;;4.20;2.10;;;19.30;51.50;;;;;;5072528;28;20529;-80
2023/03/14 08:39:53;;;;;;;2.80;1.73;;;19.30;51.70;;;;;;5082465;28;20451;-83
2023/03/14 08:42:22;;;;;;;2.17;1.93;;;19.30;51.60;;;;;;5080870;28;20447;-81
2023/03/14 08:44:51;;;;;;;10.00;2.07;;;19.30;51.60;;;;;;5083077;28;20447;-82
2023/03/14 08:47:19;;;;;;;4.50;1.87;;;19.30;51.60;;;;;;5080895;28;20440;-81
2023/03/14 08:49:47;;;;;;;3.83;2.10;;;19.30;51.70;;;;;;5085310;28;20457;-84
2023/03/14 08:52:18;;;;;;;4.17;2.00;;;19.20;51.60;;;;;;5081497;28;20461;-80
2023/03/14 08:54:46;;;;;;;3.00;1.73;;;19.20;51.70;;;;;;5075051;28;20514;-85
2023/03/14 08:57:14;;;;;;;3.63;1.70;;;19.20;51.70;;;;;;5078588;28;20466;-80
2023/03/14 08:59:42;;;;;;;2.60;1.40;;;19.10;51.70;;;;;;5078461;28;20481;-83
2023/03/14 09:02:12;;;;;;;3.33;2.03;;;19.10;51.80;;;;;;5076752;28;20445;-82
2023/03/14 09:04:40;;;;;;;3.23;1.87;;;19.10;51.90;;;;;;5071586;28;20454;-85
2023/03/14 09:07:09;;;;;;;3.60;2.17;;;19.10;52.00;;;;;;5071912;28;20477;-84
2023/03/14 09:09:37;;;;;;;2.10;1.53;;;19.10;52.00;;;;;;5072392;28;20446;-84
2023/03/14 09:12:05;;;;;;;1.70;1.60;;;19.00;52.00;;;;;;5080663;28;20450;-83
2023/03/14 09:14:33;;;;;;;2.00;1.50;;;19.00;52.20;;;;;;5074326;28;20445;-84
2023/03/14 09:17:01;;;;;;;2.00;1.80;;;19.00;52.10;;;;;;5073503;28;20473;-82
2023/03/14 09:19:31;;;;;;;4.40;2.00;;;19.10;52.10;;;;;;5073126;28;20528;-83
2023/03/14 09:21:59;;;;;;;4.63;1.90;;;19.00;51.90;;;;;;5078772;28;20529;-86
2023/03/14 09:24:27;;;;;;;1.67;1.57;;;19.00;52.20;;;;;;5073355;28;20445;-85
2023/03/14 09:26:56;;;;;;;5.60;2.10;;;19.00;52.20;;;;;;5073227;28;20470;-82
2023/03/14 09:29:24;;;;;;;3.37;1.70;;;19.00;52.20;;;;;;5074110;28;20446;-83
2023/03/14 09:31:52;;;;;;;3.90;1.70;;;19.00;52.30;;;;;;5066468;28;20450;-83
2023/03/14 09:34:21;;;;;;;7.90;1.90;;;18.90;52.10;;;;;;5070712;28;20446;-81
2023/03/14 09:36:50;;;;;;;7.17;1.73;;;19.00;52.40;;;;;;5073382;28;20494;-80
2023/03/14 09:39:18;;;;;;;3.80;1.80;;;19.00;52.20;;;;;;5072539;28;20457;-81
2023/03/14 09:41:48;;;;;;;4.37;1.67;;;19.00;52.20;;;;;;5079661;28;20447;-80
2023/03/14 09:44:18;;;;;;;3.30;1.70;;;19.00;52.20;;;;;;5070929;28;20450;-80
2023/03/14 09:46:49;;;;;;;2.13;1.60;;;19.00;52.20;;;;;;5070164;28;20557;-80
2023/03/14 09:49:22;;;;;;;1.70;1.60;;;19.00;52.20;;;;;;5068477;28;20454;-80
2023/03/14 09:51:54;;;;;;;6.40;2.03;;;19.00;52.10;;;;;;5071329;28;20452;-80
2023/03/14 09:54:33;;;;;;;3.50;1.90;;;19.10;52.20;;;;;;5072039;28;20537;-80
2023/03/14 09:57:01;;;;;;;2.33;1.80;;;19.10;52.00;;;;;;5073337;28;20468;-80
2023/03/14 09:59:30;;;;;;;3.47;1.63;;;19.10;52.00;;;;;;5066701;28;20491;-80
2023/03/14 10:02:01;;;;;;;2.03;1.70;;;19.10;52.10;;;;;;5073171;28;20454;-80
2023/03/14 10:04:29;;;;;;;2.17;1.70;;;19.10;52.10;;;;;;5070238;28;20457;-80
2023/03/14 10:06:59;;;;;;;3.33;1.83;;;19.10;52.10;;;;;;5069025;28;20481;-80
2023/03/14 10:09:30;;;;;;;2.60;2.20;;;19.10;52.10;;;;;;5076233;28;20445;-80
2023/03/14 10:11:59;;;;;;;3.00;1.97;;;19.10;52.10;;;;;;5074890;28;20529;-82
2023/03/14 10:14:38;;;;;;;5.60;3.00;;;19.00;52.20;;;;;;5071962;28;20445;-80
2023/03/14 10:17:09;;;;;;;5.70;3.07;;;19.00;52.20;;;;;;5070480;28;20484;-80
2023/03/14 10:19:37;;;;;;;4.40;2.30;;;19.00;52.20;;;;;;5072799;28;20442;-80
2023/03/14 10:22:11;;;;;;;4.20;2.50;;;18.90;52.20;;;;;;5066672;28;20469;-81
2023/03/14 10:24:40;;;;;;;3.03;2.40;;;18.90;52.20;;;;;;5070005;28;20429;-80
2023/03/14 10:27:19;;;;;;;4.43;2.97;;;18.90;52.30;;;;;;5060992;28;20920;-80
2023/03/14 10:29:53;;;;;;;3.53;2.77;;;18.90;52.30;;;;;;5075475;28;20447;-80
2023/03/14 10:32:21;;;;;;;2.83;2.50;;;18.90;52.40;;;;;;5065824;28;20450;-80
2023/03/14 10:35:06;;;;;;;3.40;3.03;;;18.90;52.40;;;;;;5074814;28;20453;-80
2023/03/14 10:37:35;;;;;;;4.40;2.57;;;18.90;52.40;;;;;;5077936;28;20448;-80
2023/03/14 10:40:05;;;;;;;4.00;2.50;;;18.90;52.30;;;;;;5074140;28;20464;-80
2023/03/14 10:42:34;;;;;;;4.93;2.30;;;18.90;52.40;;;;;;5078165;28;20528;-80
2023/03/14 10:45:03;;;;;;;4.77;2.13;;;18.90;52.40;;;;;;5077207;28;20448;-80
2023/03/14 10:47:31;;;;;;;4.87;2.43;;;18.90;52.90;;;;;;5077014;28;20457;-80
2023/03/14 10:50:00;;;;;;;6.23;2.47;;;19.00;52.40;;;;;;5076000;28;20450;-80
2023/03/14 10:52:29;;;;;;;3.40;2.70;;;19.10;52.30;;;;;;5071248;28;20457;-80
2023/03/14 10:55:13;;;;;;;3.00;2.70;;;19.30;52.20;;;;;;5070016;28;20494;-81
2023/03/14 10:57:42;;;;;;;3.20;2.60;;;19.60;52.10;;;;;;5068061;28;20443;-81
2023/03/14 11:00:16;;;;;;;2.43;2.20;;;19.90;51.90;;;;;;5062862;28;20526;-81
2023/03/14 11:02:50;;;;;;;2.67;2.47;;;20.00;51.20;;;;;;5077907;28;20445;-81
2023/03/14 11:05:26;;;;;;;3.70;2.40;;;20.00;50.90;;;;;;5081457;28;20563;-81
2023/03/14 11:07:56;;;;;;;3.23;2.50;;;20.00;51.10;;;;;;5080923;28;20473;-81
2023/03/14 11:10:27;;;;;;;4.70;2.27;;;20.00;51.40;;;;;;5081448;28;20446;-81
2023/03/14 11:13:06;;;;;;;4.67;2.67;;;20.20;51.00;;;;;;5075393;28;20454;-81
2023/03/14 11:15:59;;;;;;;2.43;2.30;;;20.40;51.20;;;;;;5081876;28;20533;-83
2023/03/14 11:18:59;;;;;;;4.43;2.43;;;20.60;50.70;;;;;;5068975;28;20437;-84
2023/03/14 11:21:29;;;;;;;2.67;2.10;;;20.80;50.50;;;;;;5069328;28;20453;-81
2023/03/14 11:24:15;;;;;;;7.83;2.10;;;20.90;50.50;;;;;;5077033;28;20460;-82
2023/03/14 11:26:47;;;;;;;3.20;2.17;;;21.30;50.00;;;;;;5080410;28;20469;-81
2023/03/14 11:29:21;;;;;;;2.63;2.40;;;21.40;49.70;;;;;;5076453;28;20469;-81
2023/03/14 11:31:49;;;;;;;2.63;1.90;;;21.50;49.30;;;;;;5078403;28;20809;-81
2023/03/14 11:34:18;;;;;;;2.83;2.00;;;22.00;49.60;;;;;;5082715;28;20441;-81
2023/03/14 11:36:49;;;;;;;4.60;2.23;;;22.00;48.40;;;;;;5080330;28;20468;-81
2023/03/14 11:39:18;;;;;;;2.53;1.77;;;22.10;48.20;;;;;;5081866;28;20479;-81
2023/03/14 11:41:49;;;;;;;3.07;2.17;;;21.80;48.20;;;;;;5077810;28;20447;-80
2023/03/14 11:44:20;;;;;;;2.90;2.20;;;21.60;48.40;;;;;;5080456;28;20446;-82
2023/03/14 11:46:50;;;;;;;2.80;2.10;;;21.30;48.80;;;;;;5080521;28;20474;-82
2023/03/14 11:49:24;;;;;;;3.20;2.03;;;21.10;49.10;;;;;;5081978;28;20442;-80
2023/03/14 11:51:54;;;;;;;3.00;2.00;;;21.00;49.50;;;;;;5076482;28;20459;-81
2023/03/14 11:54:26;;;;;;;2.00;1.77;;;21.00;50.00;;;;;;5079282;28;20528;-81
2023/03/14 11:56:56;;;;;;;2.27;2.07;;;21.40;49.90;;;;;;5079565;28;20496;-81
2023/03/14 11:59:28;;;;;;;3.00;2.00;;;21.70;49.40;;;;;;5077597;28;20438;-80
2023/03/14 12:01:58;;;;;;;3.10;1.97;;;21.90;48.40;;;;;;5079017;28;20446;-81
2023/03/14 12:04:44;;;;;;;4.13;2.30;;;22.50;49.40;;;;;;5072529;28;20503;-82
2023/03/14 12:07:19;;;;;;;2.63;2.13;;;23.50;48.20;;;;;;5080030;28;20571;-81
2023/03/14 12:09:47;;;;;;;3.07;1.97;;;24.40;46.90;;;;;;5078269;28;20492;-82
2023/03/14 12:12:18;;;;;;;5.07;1.77;;;25.00;45.90;;;;;;5079625;28;20453;-81
2023/03/14 12:14:47;;;;;;;2.20;1.70;;;25.30;44.10;;;;;;5072156;28;20425;-81
2023/03/14 12:17:20;;;;;;;4.47;1.90;;;25.00;43.60;;;;;;5078901;28;20532;-81
2023/03/14 12:19:48;;;;;;;2.30;1.90;;;25.20;44.70;;;;;;5077631;28;20511;-81
2023/03/14 12:22:29;;;;;;;2.30;1.97;;;26.00;44.30;;;;;;5079695;28;20452;-81
2023/03/14 12:25:04;;;;;;;5.47;2.17;;;25.80;42.40;;;;;;5078448;28;20438;-82
2023/03/14 12:28:14;;;;;;;2.67;1.83;;;25.30;42.80;;;;;;5073158;28;20450;-82
2023/03/14 12:30:42;;;;;;;2.97;2.00;;;24.80;43.70;;;;;;5072128;28;20450;-81
2023/03/14 12:33:28;;;;;;;3.43;1.77;;;24.20;44.00;;;;;;5076378;28;20450;-80
2023/03/14 12:36:01;;;;;;;3.30;2.10;;;23.80;45.00;;;;;;5074733;28;20440;-81
2023/03/14 12:38:33;;;;;;;4.30;1.60;;;24.50;46.10;;;;;;5079068;28;20451;-80
2023/03/14 12:41:04;;;;;;;2.70;1.60;;;24.30;44.50;;;;;;5078648;28;20448;-80
2023/03/14 12:43:34;;;;;;;5.80;2.50;;;24.40;45.20;;;;;;5082278;28;20499;-81
2023/03/14 12:46:16;;;;;;;2.87;1.83;;;24.30;44.20;;;;;;5080933;28;20466;-81
2023/03/14 12:48:45;;;;;;;3.23;1.87;;;24.00;44.40;;;;;;5080603;28;20461;-82
2023/03/14 12:51:14;;;;;;;4.57;1.67;;;23.60;44.70;;;;;;5071144;28;20438;-81
2023/03/14 12:54:10;;;;;;;5.53;1.70;;;23.20;45.20;;;;;;5076861;28;20517;-80
2023/03/14 12:56:45;;;;;;;3.33;1.63;;;23.00;45.80;;;;;;5058761;28;20466;-81
2023/03/14 12:59:40;;;;;;;2.60;2.10;;;22.80;46.40;;;;;;5077120;28;20438;-82